Time;durP1;ratioP1;P1;durP2;ratioP2;P2;SDS_P1;SDS_P2;PMS_P1;PMS_P2;Temp;Humidity;BMP_temperature;BMP_pressure;BME280_temperature;BME280_humidity;BME280_pressure;Samples;Min_cycle;Max_cycle;Signal;HPM_P1;HPM_P2
2022/08/24 00:02:17;;;;;;;5.85;2.30;;;17.20;99.90;;;;;;7320374;32;20166;-64
2022/08/24 00:06:21;;;;;;;7.35;2.40;;;17.20;99.90;;;;;;7315610;32;20192;-64
2022/08/24 00:10:25;;;;;;;9.50;2.62;;;17.20;99.90;;;;;;7315033;32;20497;-64
2022/08/24 00:14:27;;;;;;;9.98;2.58;;;17.20;99.90;;;;;;7316320;32;20256;-65
2022/08/24 00:18:29;;;;;;;7.65;2.62;;;17.20;99.90;;;;;;7323234;32;20108;-63
2022/08/24 00:22:30;;;;;;;5.95;2.40;;;17.20;99.90;;;;;;7321481;32;20134;-64
2022/08/24 00:26:34;;;;;;;7.40;2.40;;;17.10;99.90;;;;;;7321519;32;20277;-64
2022/08/24 00:30:36;;;;;;;7.30;2.67;;;17.00;99.90;;;;;;7317095;32;20285;-63
2022/08/24 00:34:37;;;;;;;8.50;2.30;;;17.00;99.90;;;;;;7307472;32;20142;-63
2022/08/24 00:38:39;;;;;;;6.00;2.40;;;16.90;99.90;;;;;;7317161;32;20407;-64
2022/08/24 00:42:41;;;;;;;5.55;2.62;;;16.90;99.90;;;;;;7314316;32;20524;-64
2022/08/24 00:46:49;;;;;;;8.25;3.12;;;16.90;99.90;;;;;;7311754;32;20145;-64
2022/08/24 00:50:59;;;;;;;5.22;2.35;;;16.90;99.90;;;;;;7321145;32;20107;-63
2022/08/24 00:55:10;;;;;;;7.37;2.60;;;16.80;99.90;;;;;;7318897;32;20211;-64
2022/08/24 00:59:17;;;;;;;7.30;2.78;;;16.80;99.90;;;;;;7314365;32;20267;-63
2022/08/24 01:03:19;;;;;;;8.13;3.00;;;16.70;99.90;;;;;;7319481;32;20127;-63
2022/08/24 01:07:23;;;;;;;8.45;2.40;;;16.60;99.90;;;;;;7319277;32;20653;-63
2022/08/24 01:11:35;;;;;;;6.55;2.70;;;16.60;99.90;;;;;;7315737;32;20762;-63
2022/08/24 01:15:41;;;;;;;7.97;2.92;;;16.50;99.90;;;;;;7313018;32;20538;-62
2022/08/24 01:19:47;;;;;;;6.70;2.78;;;16.50;99.90;;;;;;7321841;32;20214;-64
2022/08/24 01:23:56;;;;;;;6.93;3.30;;;16.50;99.90;;;;;;7319719;32;20115;-63
2022/08/24 01:28:03;;;;;;;10.27;3.08;;;16.40;99.90;;;;;;7319488;32;20254;-63
2022/08/24 01:32:07;;;;;;;9.75;2.97;;;16.40;99.90;;;;;;7312101;32;20308;-64
2022/08/24 01:36:34;;;;;;;6.87;2.50;;;16.40;99.90;;;;;;7324980;32;20171;-64
2022/08/24 01:40:42;;;;;;;7.70;2.67;;;16.30;99.90;;;;;;7317163;32;20222;-63
2022/08/24 01:44:45;;;;;;;9.13;2.78;;;16.30;99.90;;;;;;7323628;32;20590;-64
2022/08/24 01:49:00;;;;;;;6.95;2.87;;;16.30;99.90;;;;;;7319545;32;20230;-63
2022/08/24 01:53:04;;;;;;;5.72;2.75;;;16.20;99.90;;;;;;7317091;32;20669;-63
2022/08/24 01:57:07;;;;;;;4.70;2.42;;;16.10;99.90;;;;;;7316604;32;20735;-64
2022/08/24 02:01:09;;;;;;;6.40;2.90;;;16.20;99.90;;;;;;7321046;32;20175;-65
2022/08/24 02:05:12;;;;;;;7.40;2.92;;;16.10;99.90;;;;;;7306891;32;20174;-63
2022/08/24 02:09:14;;;;;;;10.05;2.70;;;16.10;99.90;;;;;;7318217;32;20269;-63
2022/08/24 02:13:16;;;;;;;5.70;3.10;;;16.10;99.90;;;;;;7316342;32;20207;-64
2022/08/24 02:17:18;;;;;;;6.10;2.90;;;16.00;99.90;;;;;;7319719;32;20527;-63
2022/08/24 02:21:19;;;;;;;6.70;2.92;;;15.90;99.90;;;;;;7316352;32;20138;-63
2022/08/24 02:25:22;;;;;;;5.43;2.70;;;15.90;99.90;;;;;;7322356;32;20534;-64
2022/08/24 02:29:24;;;;;;;9.75;2.78;;;15.90;99.90;;;;;;7314723;32;20119;-64
2022/08/24 02:33:26;;;;;;;7.57;2.83;;;16.00;99.90;;;;;;7323979;32;20223;-63
2022/08/24 02:37:28;;;;;;;7.28;2.53;;;16.00;99.90;;;;;;7321940;32;20192;-63
2022/08/24 02:41:31;;;;;;;6.30;3.00;;;15.90;99.90;;;;;;7314479;32;20770;-63
2022/08/24 02:45:37;;;;;;;6.45;2.87;;;15.90;99.90;;;;;;7295964;32;20298;-62
2022/08/24 02:49:39;;;;;;;6.50;2.77;;;15.80;99.90;;;;;;7314728;32;20107;-62
2022/08/24 02:53:41;;;;;;;8.30;2.75;;;15.90;99.90;;;;;;7317935;32;20246;-63
2022/08/24 02:57:42;;;;;;;7.47;3.15;;;15.80;99.90;;;;;;7319453;32;20177;-63
2022/08/24 03:01:44;;;;;;;7.22;3.08;;;15.80;99.90;;;;;;7319922;32;20177;-62
2022/08/24 03:05:47;;;;;;;11.68;3.58;;;15.80;99.90;;;;;;7319859;32;20137;-64
2022/08/24 03:09:49;;;;;;;9.88;2.95;;;15.70;99.90;;;;;;7318141;32;20139;-63
2022/08/24 03:13:50;;;;;;;5.20;2.67;;;15.70;99.90;;;;;;7320316;32;20131;-63
2022/08/24 03:17:52;;;;;;;9.80;3.15;;;15.70;99.90;;;;;;7318217;32;20563;-62
2022/08/24 03:21:55;;;;;;;6.22;2.97;;;15.70;99.90;;;;;;7319496;32;20209;-63
2022/08/24 03:25:57;;;;;;;4.57;2.67;;;15.60;99.90;;;;;;7309704;32;20704;-63
2022/08/24 03:30:00;;;;;;;7.28;3.08;;;15.60;99.90;;;;;;7306269;32;20122;-63
2022/08/24 03:34:02;;;;;;;9.40;2.92;;;15.50;99.90;;;;;;7319404;32;20146;-63
2022/08/24 03:38:06;;;;;;;5.07;2.53;;;15.60;99.90;;;;;;7320467;32;20202;-63
2022/08/24 03:42:07;;;;;;;9.75;3.22;;;15.50;99.90;;;;;;7315431;32;20528;-63
2022/08/24 03:46:11;;;;;;;6.18;2.65;;;15.60;99.90;;;;;;7322083;32;20218;-62
2022/08/24 03:50:13;;;;;;;12.25;2.97;;;15.40;99.90;;;;;;7311712;32;20159;-62
2022/08/24 03:54:15;;;;;;;7.82;3.50;;;15.30;99.90;;;;;;7315580;32;20229;-63
2022/08/24 03:58:17;;;;;;;3.97;2.92;;;15.20;99.90;;;;;;7312551;32;20210;-63
2022/08/24 04:02:19;;;;;;;6.22;2.92;;;15.30;99.90;;;;;;7301051;32;20119;-63
2022/08/24 04:06:22;;;;;;;6.78;2.95;;;15.30;99.90;;;;;;7315111;32;20174;-64
2022/08/24 04:10:24;;;;;;;7.05;3.03;;;15.30;99.90;;;;;;7313623;32;20529;-63
2022/08/24 04:14:26;;;;;;;4.25;2.58;;;15.30;99.90;;;;;;7320273;32;20186;-63
2022/08/24 04:18:28;;;;;;;6.97;3.37;;;15.20;99.90;;;;;;7311408;32;20116;-63
2022/08/24 04:22:32;;;;;;;7.25;2.97;;;15.10;99.90;;;;;;7305711;32;20269;-63
2022/08/24 04:26:36;;;;;;;9.60;3.25;;;15.10;99.90;;;;;;7313184;32;20108;-63
2022/08/24 04:30:49;;;;;;;12.88;3.17;;;15.10;99.90;;;;;;7303348;32;20235;-63
2022/08/24 04:34:51;;;;;;;5.53;2.90;;;15.00;99.90;;;;;;7311695;32;20179;-62
2022/08/24 04:38:52;;;;;;;9.00;3.33;;;15.00;99.90;;;;;;7310703;32;20130;-67
2022/08/24 04:42:54;;;;;;;6.53;2.95;;;15.00;99.90;;;;;;7313168;32;20245;-67
2022/08/24 04:46:57;;;;;;;6.57;3.05;;;15.00;99.90;;;;;;7311225;32;20167;-67
2022/08/24 04:51:06;;;;;;;5.87;3.10;;;15.00;99.90;;;;;;7317592;32;20465;-67
2022/08/24 04:55:14;;;;;;;14.05;9.57;;;15.00;99.90;;;;;;7319152;32;20165;-68
2022/08/24 04:59:16;;;;;;;7.87;3.70;;;15.00;99.90;;;;;;7314662;32;20293;-67
2022/08/24 05:03:18;;;;;;;7.22;3.80;;;15.00;99.90;;;;;;7317767;32;20252;-69
2022/08/24 05:07:20;;;;;;;6.82;3.42;;;15.00;99.90;;;;;;7317948;32;20284;-69
2022/08/24 05:11:22;;;;;;;5.97;3.65;;;15.00;99.90;;;;;;7315923;32;20119;-70
2022/08/24 05:15:24;;;;;;;11.70;3.85;;;15.10;99.90;;;;;;7331944;32;20258;-68
2022/08/24 05:19:27;;;;;;;8.32;3.12;;;15.10;99.90;;;;;;7334189;32;20200;-69
2022/08/24 05:23:29;;;;;;;6.62;4.10;;;15.10;99.90;;;;;;7322499;32;20278;-70
2022/08/24 05:27:34;;;;;;;9.38;4.03;;;15.30;99.90;;;;;;7318136;32;20233;-69
2022/08/24 05:31:36;;;;;;;9.77;3.97;;;15.30;99.90;;;;;;7317380;32;20523;-71
2022/08/24 05:35:39;;;;;;;9.23;3.83;;;15.30;99.90;;;;;;7312424;32;20245;-58
2022/08/24 05:39:45;;;;;;;5.27;3.90;;;15.40;99.90;;;;;;7322158;32;20130;-59
2022/08/24 05:43:47;;;;;;;8.55;4.03;;;15.50;99.90;;;;;;7320445;32;20569;-58
2022/08/24 05:47:49;;;;;;;7.07;4.03;;;15.50;99.90;;;;;;7307311;32;20210;-58
2022/08/24 05:51:51;;;;;;;11.05;7.30;;;15.60;99.90;;;;;;7306418;32;20320;-58
2022/08/24 05:55:53;;;;;;;14.48;9.07;;;15.70;99.90;;;;;;7319279;32;20176;-59
2022/08/24 05:59:55;;;;;;;12.13;5.15;;;15.80;99.90;;;;;;7316449;32;20490;-59
2022/08/24 06:03:57;;;;;;;6.65;4.28;;;15.90;99.90;;;;;;7315117;32;20320;-59
2022/08/24 06:07:59;;;;;;;10.70;3.90;;;16.10;99.90;;;;;;7314523;32;20263;-70
2022/08/24 06:12:02;;;;;;;7.03;3.60;;;16.20;99.90;;;;;;7303179;32;20111;-70
2022/08/24 06:16:12;;;;;;;9.07;3.78;;;16.30;99.90;;;;;;7314171;32;20713;-71
2022/08/24 06:20:23;;;;;;;6.53;3.80;;;16.40;99.90;;;;;;7309711;32;20162;-71
2022/08/24 06:28:45;;;;;;;7.25;3.25;;;16.70;99.90;;;;;;7316917;32;20133;-69
2022/08/24 06:32:47;;;;;;;4.97;3.30;;;16.90;99.90;;;;;;7310919;32;20116;-70
2022/08/24 06:36:51;;;;;;;7.85;3.50;;;17.10;99.90;;;;;;7315522;32;20115;-70
2022/08/24 06:40:54;;;;;;;8.23;3.80;;;17.30;99.90;;;;;;7310182;32;20234;-70
2022/08/24 06:44:56;;;;;;;8.32;3.90;;;17.50;99.90;;;;;;7313794;32;20218;-70
2022/08/24 06:48:58;;;;;;;6.82;3.62;;;17.70;99.90;;;;;;7298802;32;20207;-70
2022/08/24 06:53:00;;;;;;;7.00;3.50;;;17.80;99.90;;;;;;7303536;32;20212;-70
2022/08/24 06:57:03;;;;;;;10.27;3.10;;;18.00;99.90;;;;;;7314480;32;20663;-68
2022/08/24 07:01:12;;;;;;;8.35;3.10;;;18.30;99.90;;;;;;7317054;32;20245;-68
2022/08/24 07:05:13;;;;;;;8.27;2.53;;;18.50;99.90;;;;;;7316716;32;20158;-70
2022/08/24 07:09:15;;;;;;;5.10;2.58;;;18.90;99.90;;;;;;7302268;32;20550;-71
2022/08/24 07:13:17;;;;;;;7.68;2.75;;;19.30;99.90;;;;;;7316868;32;20183;-69
2022/08/24 07:17:27;;;;;;;6.25;2.58;;;19.40;99.90;;;;;;7320305;32;20186;-69
2022/08/24 07:21:31;;;;;;;7.72;2.72;;;19.90;99.90;;;;;;7312783;32;20125;-69
2022/08/24 07:25:33;;;;;;;5.68;2.20;;;20.10;99.90;;;;;;7298808;32;20229;-69
2022/08/24 07:29:35;;;;;;;6.85;2.75;;;20.20;99.90;;;;;;7310096;32;20486;-68
2022/08/24 07:33:52;;;;;;;5.15;2.30;;;20.40;99.90;;;;;;7314148;32;20107;-69
2022/08/24 07:37:55;;;;;;;5.03;2.35;;;20.50;99.90;;;;;;7312579;32;20122;-72
2022/08/24 07:41:58;;;;;;;6.97;2.70;;;20.70;99.90;;;;;;7313095;32;20183;-71
2022/08/24 07:46:14;;;;;;;;;;;20.80;99.90;;;;;;7312669;32;20182;-72
2022/08/24 07:50:17;;;;;;;3.20;2.25;;;21.00;99.90;;;;;;7312077;32;20118;-70
2022/08/24 07:54:20;;;;;;;3.97;2.25;;;21.30;99.90;;;;;;7290084;32;20344;-70
2022/08/24 07:58:23;;;;;;;8.00;2.80;;;21.40;99.90;;;;;;7306629;32;20402;-71
2022/08/24 08:02:26;;;;;;;6.90;2.22;;;21.60;99.90;;;;;;7314461;32;20258;-66
2022/08/24 08:06:34;;;;;;;6.07;2.15;;;21.90;99.90;;;;;;7312890;32;20112;-66
2022/08/24 08:10:36;;;;;;;9.95;2.60;;;22.00;99.90;;;;;;7317194;32;20192;-67
2022/08/24 08:14:38;;;;;;;4.93;2.15;;;22.30;99.90;;;;;;7319589;32;20198;-67
2022/08/24 08:18:40;;;;;;;5.65;2.58;;;22.60;99.90;;;;;;7319696;32;20674;-67
2022/08/24 08:27:03;;;;;;;6.32;2.50;;;22.90;99.90;;;;;;7320001;32;20146;-67
2022/08/24 08:31:04;;;;;;;5.30;2.10;;;23.00;99.90;;;;;;7317010;32;20131;-67
2022/08/24 08:35:07;;;;;;;8.60;2.30;;;23.30;99.90;;;;;;7315206;32;20194;-66
2022/08/24 08:39:11;;;;;;;7.80;2.50;;;23.40;99.90;;;;;;7312105;32;20294;-66
2022/08/24 08:43:29;;;;;;;6.70;2.58;;;23.60;99.90;;;;;;7312430;32;20292;-67
2022/08/24 08:48:02;;;;;;;4.78;2.30;;;24.00;99.90;;;;;;7313871;32;20116;-66
2022/08/24 08:52:26;;;;;;;7.07;2.37;;;24.50;99.90;;;;;;7318200;32;20134;-67
2022/08/24 08:56:37;;;;;;;4.80;2.30;;;24.80;99.90;;;;;;7315589;32;20401;-66
2022/08/24 09:01:06;;;;;;;3.92;2.17;;;25.50;99.90;;;;;;7313002;32;20524;-67
2022/08/24 09:05:08;;;;;;;;;;;25.80;99.90;;;;;;7316817;32;20134;-67
2022/08/24 09:09:38;;;;;;;7.50;2.58;;;26.40;99.90;;;;;;7314768;32;20719;-68
2022/08/24 09:14:07;;;;;;;8.05;2.20;;;26.90;99.90;;;;;;7318824;32;20935;-67
2022/08/24 09:18:34;;;;;;;6.55;2.55;;;27.40;99.90;;;;;;7319188;32;20226;-67
2022/08/24 09:22:40;;;;;;;5.40;1.80;;;28.40;99.20;;;;;;7321122;32;20201;-67
2022/08/24 09:27:00;;;;;;;4.57;2.20;;;28.60;98.60;;;;;;7318966;32;20147;-68
2022/08/24 09:31:40;;;;;;;7.32;2.08;;;28.50;96.70;;;;;;7316716;32;20139;-67
2022/08/24 09:35:50;;;;;;;5.65;2.10;;;29.00;94.40;;;;;;7269416;32;20174;-68
2022/08/24 09:39:58;;;;;;;4.97;1.95;;;28.90;93.70;;;;;;7315237;32;20809;-66
2022/08/24 09:44:26;;;;;;;8.05;2.50;;;29.60;92.60;;;;;;7320083;32;20111;-68
2022/08/24 09:48:53;;;;;;;6.03;2.00;;;29.60;91.40;;;;;;7314363;32;20171;-66
2022/08/24 09:52:57;;;;;;;8.52;2.05;;;30.70;90.00;;;;;;7314662;32;20128;-66
2022/08/24 09:57:21;;;;;;;4.50;2.03;;;31.20;86.50;;;;;;7313026;32;20159;-67
2022/08/24 10:01:37;;;;;;;9.75;2.00;;;32.30;86.40;;;;;;7318291;32;20128;-67
2022/08/24 10:05:58;;;;;;;5.82;1.83;;;33.10;83.50;;;;;;7319021;32;20099;-67
2022/08/24 10:10:28;;;;;;;6.90;2.03;;;33.90;78.00;;;;;;7317586;32;20229;-67
2022/08/24 10:15:01;;;;;;;3.55;1.92;;;34.50;71.90;;;;;;7316422;32;20207;-68
2022/08/24 10:19:39;;;;;;;7.32;1.60;;;35.00;73.60;;;;;;7312894;32;20609;-68
2022/08/24 10:24:06;;;;;;;5.60;2.15;;;35.00;70.50;;;;;;7321740;32;20103;-68
2022/08/24 10:28:19;;;;;;;6.72;1.90;;;34.70;64.50;;;;;;7317582;32;20126;-68
2022/08/24 10:33:03;;;;;;;5.00;1.70;;;34.50;66.30;;;;;;7307130;32;20152;-67
2022/08/24 10:37:37;;;;;;;7.93;1.75;;;35.00;66.70;;;;;;7290189;32;20145;-65
2022/08/24 10:41:56;;;;;;;5.57;1.90;;;35.10;61.30;;;;;;7298270;32;20819;-68
2022/08/24 10:46:28;;;;;;;6.18;1.70;;;35.10;64.30;;;;;;7312345;32;20179;-67
2022/08/24 10:51:01;;;;;;;4.35;1.75;;;35.00;64.90;;;;;;7311588;32;21016;-67
2022/08/24 10:55:21;;;;;;;7.12;1.50;;;34.60;64.40;;;;;;7307230;32;20104;-68
2022/08/24 10:59:30;;;;;;;6.72;1.70;;;34.20;61.90;;;;;;7316617;32;20190;-67
2022/08/24 11:03:52;;;;;;;8.68;1.90;;;33.40;63.60;;;;;;7317515;32;20199;-67
2022/08/24 11:08:00;;;;;;;9.55;2.20;;;32.70;63.10;;;;;;7315050;32;20305;-66
2022/08/24 11:12:22;;;;;;;5.47;1.80;;;32.50;64.20;;;;;;7322415;32;20273;-67
2022/08/24 11:16:29;;;;;;;6.53;1.65;;;32.60;64.90;;;;;;7314628;32;20180;-67
2022/08/24 11:20:40;;;;;;;3.67;1.40;;;32.60;66.50;;;;;;7313190;32;20282;-68
2022/08/24 11:24:44;;;;;;;4.85;1.50;;;32.30;66.70;;;;;;7302867;32;20282;-66
2022/08/24 11:28:52;;;;;;;3.35;1.00;;;32.50;67.70;;;;;;7317281;32;20540;-67
2022/08/24 11:32:55;;;;;;;2.83;1.17;;;32.60;64.30;;;;;;7313841;32;20298;-67
2022/08/24 11:36:58;;;;;;;2.33;1.10;;;32.70;63.80;;;;;;7321463;32;20126;-65
2022/08/24 11:41:21;;;;;;;3.60;1.17;;;32.60;61.50;;;;;;7310650;32;20661;-67
2022/08/24 11:45:28;;;;;;;3.28;1.48;;;32.90;61.60;;;;;;7295609;32;20120;-67
2022/08/24 11:49:58;;;;;;;3.45;1.48;;;33.00;60.70;;;;;;7314552;32;20229;-66
2022/08/24 11:54:08;;;;;;;6.60;1.52;;;33.00;59.20;;;;;;7317301;32;20182;-66
2022/08/24 11:58:13;;;;;;;2.05;1.30;;;33.30;60.90;;;;;;7321238;32;20226;-65
2022/08/24 12:02:28;;;;;;;3.00;1.30;;;33.60;58.70;;;;;;7314702;32;20179;-65
2022/08/24 12:06:47;;;;;;;7.65;1.55;;;33.90;57.00;;;;;;7318400;32;20186;-67
2022/08/24 12:10:58;;;;;;;13.27;1.80;;;33.80;59.20;;;;;;7317206;32;20126;-68
2022/08/24 12:15:46;;;;;;;3.53;1.42;;;33.60;58.70;;;;;;7313769;32;20206;-68
2022/08/24 12:19:59;;;;;;;4.25;1.70;;;33.50;59.00;;;;;;7309835;32;20253;-71
2022/08/24 12:24:08;;;;;;;4.30;1.40;;;33.30;60.00;;;;;;7306117;32;20387;-70
2022/08/24 12:28:11;;;;;;;5.32;1.95;;;33.40;58.90;;;;;;7313535;32;20925;-69
2022/08/24 12:32:16;;;;;;;5.40;1.50;;;33.30;59.00;;;;;;7314563;32;20103;-69
2022/08/24 12:36:29;;;;;;;5.50;1.30;;;33.20;58.40;;;;;;7306677;32;20104;-70
2022/08/24 12:40:38;;;;;;;6.32;1.50;;;33.10;57.40;;;;;;7314054;32;20834;-69
2022/08/24 12:44:52;;;;;;;9.02;1.77;;;33.00;58.60;;;;;;7312953;32;20130;-68
2022/08/24 12:49:09;;;;;;;8.40;1.80;;;33.10;58.90;;;;;;7316417;32;20095;-69
2022/08/24 12:53:22;;;;;;;7.45;1.37;;;32.90;59.10;;;;;;7318883;32;20190;-70
2022/08/24 12:57:38;;;;;;;5.03;1.50;;;32.90;59.10;;;;;;7309802;32;20198;-71
2022/08/24 13:01:55;;;;;;;5.20;1.70;;;32.90;60.50;;;;;;7314919;32;20211;-69
2022/08/24 13:06:02;;;;;;;6.15;1.70;;;33.00;58.50;;;;;;7322936;32;20554;-70
2022/08/24 13:10:05;;;;;;;4.50;1.60;;;33.10;57.30;;;;;;7320760;32;20574;-69
2022/08/24 13:14:23;;;;;;;5.22;1.30;;;33.10;58.00;;;;;;7319913;32;20272;-67
2022/08/24 13:18:45;;;;;;;2.37;1.30;;;33.20;58.30;;;;;;7320253;32;20622;-67
2022/08/24 13:23:09;;;;;;;7.32;1.98;;;33.00;57.30;;;;;;7317832;32;20127;-67
2022/08/24 13:27:11;;;;;;;4.00;1.58;;;33.00;56.80;;;;;;7318520;32;20179;-68
2022/08/24 13:31:37;;;;;;;2.33;1.08;;;33.20;58.80;;;;;;7325651;32;20122;-67
2022/08/24 13:35:39;;;;;;;3.83;1.52;;;33.40;58.40;;;;;;7317668;32;20939;-68
2022/08/24 13:40:07;;;;;;;3.47;1.25;;;33.30;56.40;;;;;;7318125;32;20464;-68
2022/08/24 13:44:17;;;;;;;4.00;1.40;;;33.40;56.00;;;;;;7320395;32;20122;-68
2022/08/24 13:48:50;;;;;;;4.03;1.35;;;33.50;56.40;;;;;;7316776;32;20353;-68
2022/08/24 13:53:16;;;;;;;3.55;1.33;;;33.40;55.40;;;;;;7313953;32;20206;-67
2022/08/24 13:57:41;;;;;;;7.78;1.48;;;33.40;55.80;;;;;;7317262;32;20683;-68
2022/08/24 14:02:20;;;;;;;2.50;1.20;;;33.40;56.00;;;;;;7318958;32;20188;-68
2022/08/24 14:06:39;;;;;;;4.37;1.45;;;33.00;55.00;;;;;;7318491;32;20302;-66
2022/08/24 14:10:46;;;;;;;7.03;1.25;;;32.60;55.30;;;;;;7318036;32;20108;-68
2022/08/24 14:15:01;;;;;;;4.87;1.80;;;32.30;56.30;;;;;;7315321;32;20119;-69
2022/08/24 14:19:23;;;;;;;3.53;1.20;;;32.20;58.30;;;;;;7314259;32;20096;-68
2022/08/24 14:23:27;;;;;;;5.87;1.27;;;32.20;55.70;;;;;;7299622;32;20155;-68
2022/08/24 14:27:37;;;;;;;3.20;1.20;;;32.70;55.70;;;;;;7312429;32;20811;-65
2022/08/24 14:31:41;;;;;;;2.55;1.42;;;33.30;54.90;;;;;;7312445;32;20408;-68
2022/08/24 14:36:16;;;;;;;1.85;1.08;;;33.70;54.70;;;;;;7312182;32;20386;-68
2022/08/24 14:40:57;;;;;;;1.80;1.10;;;33.90;55.10;;;;;;7310223;32;20480;-67
2022/08/24 14:45:22;;;;;;;5.03;1.00;;;34.10;52.70;;;;;;7301772;32;20167;-68
2022/08/24 14:50:03;;;;;;;4.45;1.10;;;34.30;53.20;;;;;;7314536;32;20306;-67
2022/08/24 14:54:40;;;;;;;2.55;1.00;;;34.20;51.40;;;;;;7305783;32;20143;-69
2022/08/24 14:58:50;;;;;;;3.75;1.17;;;33.80;53.90;;;;;;7317368;32;20591;-68
2022/08/24 15:03:23;;;;;;;4.53;1.25;;;33.40;52.50;;;;;;7300914;32;20277;-69
2022/08/24 15:07:29;;;;;;;2.50;1.23;;;33.00;53.00;;;;;;7315972;32;20632;-69
2022/08/24 15:11:35;;;;;;;2.90;1.40;;;32.70;54.40;;;;;;7298537;32;20530;-67
2022/08/24 15:15:54;;;;;;;3.05;1.30;;;32.60;53.40;;;;;;7314994;32;20190;-67
2022/08/24 15:20:27;;;;;;;5.07;1.48;;;32.60;53.80;;;;;;7316587;32;20127;-67
2022/08/24 15:24:41;;;;;;;4.82;1.42;;;32.30;53.60;;;;;;7302770;32;20189;-67
2022/08/24 15:28:49;;;;;;;5.03;1.20;;;32.10;53.40;;;;;;7304914;32;20311;-67
2022/08/24 15:33:06;;;;;;;2.35;1.10;;;32.10;54.70;;;;;;7317896;32;20108;-67
2022/08/24 15:37:09;;;;;;;3.30;1.20;;;32.20;54.10;;;;;;7317030;32;20441;-67
2022/08/24 15:41:33;;;;;;;1.67;1.10;;;31.90;55.80;;;;;;7315371;32;20115;-67
2022/08/24 15:45:42;;;;;;;5.18;1.35;;;31.80;55.00;;;;;;7310817;32;20602;-67
2022/08/24 15:49:50;;;;;;;5.12;1.10;;;31.60;54.80;;;;;;7314545;32;20231;-66
2022/08/24 15:53:52;;;;;;;3.17;1.25;;;31.40;54.90;;;;;;7312455;32;20210;-67
2022/08/24 15:57:55;;;;;;;2.92;1.20;;;31.30;56.00;;;;;;7313192;32;20120;-68
2022/08/24 16:02:27;;;;;;;5.20;1.30;;;31.20;56.30;;;;;;7317240;32;20125;-69
2022/08/24 16:06:31;;;;;;;5.53;1.20;;;31.20;56.30;;;;;;7312918;32;20226;-68
2022/08/24 16:10:38;;;;;;;3.62;2.15;;;31.10;56.20;;;;;;7319844;32;20933;-68
2022/08/24 16:14:44;;;;;;;;;;;31.10;56.00;;;;;;7312805;32;20116;-69
2022/08/24 16:18:54;;;;;;;2.60;1.40;;;31.00;55.80;;;;;;7307270;32;20214;-69
2022/08/24 16:23:10;;;;;;;4.35;1.85;;;30.90;56.80;;;;;;7311758;32;20156;-68
2022/08/24 16:27:15;;;;;;;3.83;1.40;;;30.80;56.40;;;;;;7317294;32;20388;-69
2022/08/24 16:31:48;;;;;;;6.70;1.60;;;30.70;56.50;;;;;;7316901;32;20095;-68
2022/08/24 16:35:50;;;;;;;3.50;1.30;;;30.60;56.70;;;;;;7279547;32;20387;-65
2022/08/24 16:39:52;;;;;;;4.55;1.67;;;30.50;58.00;;;;;;7308725;32;20241;-67
2022/08/24 16:43:54;;;;;;;9.38;2.00;;;30.50;58.40;;;;;;7312281;32;20131;-66
2022/08/24 16:47:55;;;;;;;5.30;1.70;;;30.50;58.40;;;;;;7317775;32;20761;-67
2022/08/24 16:51:58;;;;;;;4.50;1.40;;;30.40;59.50;;;;;;7308103;32;20194;-66
2022/08/24 16:56:03;;;;;;;2.67;1.73;;;30.50;60.60;;;;;;7310502;32;20123;-66
2022/08/24 17:00:08;;;;;;;4.60;1.98;;;30.40;62.30;;;;;;7315737;32;20586;-66
2022/08/24 17:04:10;;;;;;;5.10;2.05;;;30.30;60.80;;;;;;7314137;32;20735;-65
2022/08/24 17:08:12;;;;;;;7.40;2.03;;;30.40;61.00;;;;;;7309681;32;20265;-66
2022/08/24 17:12:13;;;;;;;4.95;2.17;;;30.20;61.80;;;;;;7310613;32;20104;-64
2022/08/24 17:16:16;;;;;;;7.18;1.90;;;30.20;62.10;;;;;;7304720;32;20172;-63
2022/08/24 17:20:19;;;;;;;4.20;1.73;;;30.10;62.00;;;;;;7319585;32;20127;-64
2022/08/24 17:24:22;;;;;;;3.75;2.00;;;30.10;61.60;;;;;;7311597;32;20133;-64
2022/08/24 17:28:24;;;;;;;5.72;1.90;;;29.90;63.20;;;;;;7305374;32;20210;-64
2022/08/24 17:32:26;;;;;;;4.90;2.10;;;29.90;64.30;;;;;;7319144;32;20169;-68
2022/08/24 17:36:28;;;;;;;6.32;1.70;;;29.70;64.00;;;;;;7325331;32;20103;-70
2022/08/24 17:40:36;;;;;;;6.03;1.95;;;29.60;64.40;;;;;;7307396;32;20190;-69
2022/08/24 17:44:38;;;;;;;4.80;2.28;;;29.40;64.90;;;;;;7321569;32;20476;-65
2022/08/24 17:48:43;;;;;;;10.02;2.25;;;29.20;66.30;;;;;;7318815;32;20226;-66
2022/08/24 17:52:45;;;;;;;4.10;2.10;;;29.10;65.80;;;;;;7317046;32;20108;-66
2022/08/24 17:56:49;;;;;;;6.65;2.33;;;29.00;66.00;;;;;;7316733;32;20223;-66
2022/08/24 18:00:51;;;;;;;7.25;2.17;;;28.90;66.80;;;;;;7315401;32;20252;-66
2022/08/24 18:04:53;;;;;;;6.37;2.17;;;28.70;67.30;;;;;;7320495;32;20316;-68
2022/08/24 18:08:58;;;;;;;9.05;2.00;;;28.60;68.40;;;;;;7317381;32;20506;-69
2022/08/24 18:13:00;;;;;;;9.32;2.30;;;28.40;69.60;;;;;;7321511;32;20191;-70
2022/08/24 18:17:10;;;;;;;6.57;2.12;;;28.20;71.60;;;;;;7323102;32;20251;-66
2022/08/24 18:21:12;;;;;;;5.62;2.40;;;28.10;73.00;;;;;;7303895;32;20100;-63
2022/08/24 18:25:16;;;;;;;6.57;2.03;;;27.80;74.30;;;;;;7321286;32;20194;-69
2022/08/24 18:29:20;;;;;;;7.80;2.20;;;27.60;77.90;;;;;;7317348;32;20316;-69
2022/08/24 18:33:22;;;;;;;8.45;2.47;;;27.30;80.20;;;;;;7320175;32;20191;-63
2022/08/24 18:37:24;;;;;;;7.55;2.15;;;27.10;82.10;;;;;;7287615;32;20345;-69
2022/08/24 18:41:34;;;;;;;5.20;2.20;;;26.80;86.30;;;;;;7293571;32;20179;-70
2022/08/24 18:45:37;;;;;;;6.07;2.28;;;26.60;87.70;;;;;;7317732;32;20160;-68
2022/08/24 18:49:39;;;;;;;9.38;2.75;;;26.30;91.30;;;;;;7310375;32;20950;-66
2022/08/24 18:53:41;;;;;;;7.37;2.35;;;26.00;92.20;;;;;;7311415;32;20636;-70
2022/08/24 18:57:43;;;;;;;6.68;2.50;;;25.80;93.60;;;;;;7313380;32;20257;-66
2022/08/24 19:06:27;;;;;;;5.68;2.65;;;25.40;97.80;;;;;;7316473;32;20134;-66
2022/08/24 19:10:34;;;;;;;8.45;2.95;;;25.10;99.20;;;;;;7318998;32;20248;-68
2022/08/24 19:14:36;;;;;;;;;;;24.90;99.90;;;;;;7318516;32;20551;-68
2022/08/24 19:18:38;;;;;;;7.10;2.97;;;24.80;99.90;;;;;;7315452;32;20163;-69
2022/08/24 19:22:41;;;;;;;6.72;3.00;;;24.70;99.90;;;;;;7315592;32;20226;-68
2022/08/24 19:26:43;;;;;;;6.95;2.65;;;24.50;99.90;;;;;;7317718;32;20221;-68
2022/08/24 19:30:45;;;;;;;6.18;3.00;;;24.40;99.90;;;;;;7306299;32;20165;-69
2022/08/24 19:34:47;;;;;;;4.70;2.50;;;24.20;99.90;;;;;;7320482;32;20664;-67
2022/08/24 19:38:49;;;;;;;3.80;2.40;;;24.20;99.90;;;;;;7316273;32;20095;-69
2022/08/24 19:42:54;;;;;;;5.40;2.28;;;24.20;99.90;;;;;;7320317;32;20186;-67
2022/08/24 19:46:57;;;;;;;6.40;2.30;;;24.10;99.90;;;;;;7315094;32;20211;-67
2022/08/24 19:51:05;;;;;;;6.25;2.45;;;24.10;99.90;;;;;;7310374;32;20288;-67
2022/08/24 19:55:08;;;;;;;8.77;2.40;;;24.10;99.90;;;;;;7332178;32;20099;-66
2022/08/24 19:59:26;;;;;;;6.40;2.60;;;24.00;99.90;;;;;;7317168;32;20584;-66
2022/08/24 20:03:27;;;;;;;9.73;2.35;;;24.10;99.90;;;;;;7306349;32;20134;-69
2022/08/24 20:07:29;;;;;;;5.82;2.20;;;24.10;99.90;;;;;;7315977;32;20193;-65
2022/08/24 20:11:31;;;;;;;3.55;2.05;;;24.00;99.90;;;;;;7323932;32;20208;-67
2022/08/24 20:15:33;;;;;;;4.68;2.65;;;23.90;99.90;;;;;;7311277;32;20228;-61
2022/08/24 20:19:37;;;;;;;4.30;2.45;;;23.90;99.90;;;;;;7308646;32;20175;-64
2022/08/24 20:23:39;;;;;;;3.62;2.25;;;23.90;99.90;;;;;;7311672;32;20560;-65
2022/08/24 20:27:43;;;;;;;7.10;2.10;;;23.90;99.90;;;;;;7319304;32;20275;-65
2022/08/24 20:31:45;;;;;;;5.07;2.20;;;23.80;99.90;;;;;;7311813;32;20266;-65
2022/08/24 20:35:51;;;;;;;5.73;1.93;;;23.70;99.90;;;;;;7298091;32;20221;-65
2022/08/24 20:39:56;;;;;;;2.85;2.15;;;23.80;99.90;;;;;;7310377;32;20272;-63
2022/08/24 20:43:58;;;;;;;7.87;1.95;;;23.70;99.90;;;;;;7308139;32;20535;-65
2022/08/24 20:48:00;;;;;;;7.43;2.42;;;23.80;99.90;;;;;;7306654;32;20278;-64
2022/08/24 20:52:02;;;;;;;4.65;2.28;;;23.70;99.90;;;;;;7301408;32;20587;-65
2022/08/24 20:56:10;;;;;;;4.80;2.37;;;23.70;99.90;;;;;;7313772;32;20851;-65
2022/08/24 21:00:14;;;;;;;5.50;2.22;;;23.60;99.90;;;;;;7314264;32;20168;-65
2022/08/24 21:04:16;;;;;;;9.35;2.30;;;23.50;99.90;;;;;;7311687;32;20195;-64
2022/08/24 21:08:18;;;;;;;7.50;2.47;;;23.40;99.90;;;;;;7306926;32;20201;-65
2022/08/24 21:12:20;;;;;;;4.87;2.10;;;23.30;99.90;;;;;;7316011;32;20187;-64
2022/08/24 21:16:22;;;;;;;4.25;2.12;;;23.20;99.90;;;;;;7319784;32;20250;-65
2022/08/24 21:20:24;;;;;;;7.12;2.72;;;23.20;99.90;;;;;;7306151;32;20228;-65
2022/08/24 21:24:26;;;;;;;8.77;2.70;;;23.00;99.90;;;;;;7309901;32;20186;-64
2022/08/24 21:28:28;;;;;;;3.60;2.20;;;22.90;99.90;;;;;;7316388;32;20467;-66
2022/08/24 21:36:51;;;;;;;4.80;2.30;;;22.80;99.90;;;;;;7320764;32;20598;-61
2022/08/24 21:40:55;;;;;;;3.42;1.92;;;22.70;99.90;;;;;;7317628;32;20122;-62
2022/08/24 21:44:56;;;;;;;5.18;2.30;;;22.80;99.90;;;;;;7318480;32;20107;-61
2022/08/24 21:48:59;;;;;;;5.65;2.47;;;22.90;99.90;;;;;;7319762;32;20352;-61
2022/08/24 21:53:01;;;;;;;5.03;2.40;;;23.20;99.90;;;;;;7326563;32;20129;-62